Terminal Aerodrome Forecast
Issued by NWS Burlington, VT

Home | Current Version | Previous Version | Text Only | Print | Product List | Glossary On
Versions: 1 2 3 4 5 6 7 8 9 10 11 12 13 14 15
000
FTUS41 KBTV 251127
TAFBTV
TAF
KBTV 251127Z 2512/2612 32008KT P6SM VCSH BKN035 OVC050
     FM251500 32009G17KT P6SM OVC040
     FM252000 33007KT P6SM BKN040 OVC070
     FM260200 32003KT P6SM OVC040=

USA.gov is the U.S. government's official web portal to all federal, state and local government web resources and services.